<?xml version='1.0' encoding='UTF-8'?><gpx version="1.1" creator="JPX - https://github.com/jenetics/jpx" xmlns="http://www.topografix.com/GPX/1/1"><trk><trkseg><trkpt lat="44.78059076649467" lon="8.353682471718296"><ele>149.0</ele><time>2026-04-18T10:17:51Z</time></trkpt><trkpt lat="44.7806583483055" lon="8.353640490128797"><ele>149.0</ele><time>2026-04-18T10:17:57Z</time></trkpt><trkpt lat="44.78078593339062" lon="8.353523420041084"><ele>149.0</ele><time>2026-04-18T10:18:10Z</time></trkpt><trkpt lat="44.78084661779316" lon="8.353469225444089"><ele>149.0</ele><time>2026-04-18T10:18:16Z</time></trkpt><trkpt lat="44.780898434906526" lon="8.353394242526724"><ele>149.0</ele><time>2026-04-18T10:18:22Z</time></trkpt><trkpt lat="44.780907849177005" lon="8.353383701538213"><ele>149.0</ele><time>2026-04-18T10:18:23Z</time></trkpt><trkpt lat="44.78159893575578" lon="8.352420846434566"><ele>150.14285714285714</ele><time>2026-04-18T10:19:58.999Z</time></trkpt><trkpt lat="44.78165466991535" lon="8.352333267105937"><ele>151.28571428571428</ele><time>2026-04-18T10:20:04.999Z</time></trkpt><trkpt lat="44.781689180448865" lon="8.35225127368361"><ele>152.42857142857142</ele><time>2026-04-18T10:20:10.998Z</time></trkpt><trkpt lat="44.78172849794846" lon="8.352175217413008"><ele>153.57142857142856</ele><time>2026-04-18T10:20:15.998Z</time></trkpt><trkpt lat="44.78174706988854" lon="8.352080869629857"><ele>154.71428571428572</ele><time>2026-04-18T10:20:21.998Z</time></trkpt><trkpt lat="44.781779817895185" lon="8.351986756712488"><ele>155.85714285714283</ele><time>2026-04-18T10:20:28.998Z</time></trkpt><trkpt lat="44.78181009400796" lon="8.351896394256213"><ele>157.0</ele><time>2026-04-18T10:20:34.998Z</time></trkpt><trkpt lat="44.781849664709284" lon="8.351810871315935"><ele>159.28571428571428</ele><time>2026-04-18T10:20:40.998Z</time></trkpt><trkpt lat="44.78188962645828" lon="8.351722554359817"><ele>161.57142857142856</ele><time>2026-04-18T10:20:46.998Z</time></trkpt><trkpt lat="44.781920856335" lon="8.351633726913743"><ele>163.85714285714283</ele><time>2026-04-18T10:20:53.998Z</time></trkpt><trkpt lat="44.781954918259146" lon="8.351542043315352"><ele>166.14285714285714</ele><time>2026-04-18T10:21:00.998Z</time></trkpt><trkpt lat="44.78199123643013" lon="8.351461584159882"><ele>168.42857142857144</ele><time>2026-04-18T10:21:07.998Z</time></trkpt><trkpt lat="44.7820362322028" lon="8.35138965830684"><ele>170.7142857142857</ele><time>2026-04-18T10:21:13.998Z</time></trkpt><trkpt lat="44.78208045405579" lon="8.351320385457546"><ele>173.0</ele><time>2026-04-18T10:21:24.999Z</time></trkpt><trkpt lat="44.78213016093373" lon="8.351260815926878"><ele>173.28571428571428</ele><time>2026-04-18T10:21:31.999Z</time></trkpt><trkpt lat="44.78216482303113" lon="8.351178955256565"><ele>173.57142857142858</ele><time>2026-04-18T10:21:37.999Z</time></trkpt><trkpt lat="44.78218180602652" lon="8.351084467824384"><ele>173.85714285714286</ele><time>2026-04-18T10:21:44.999Z</time></trkpt><trkpt lat="44.7821953195043" lon="8.35098084447254"><ele>174.14285714285714</ele><time>2026-04-18T10:21:50.999Z</time></trkpt><trkpt lat="44.782210157788455" lon="8.350891919746275"><ele>174.42857142857144</ele><time>2026-04-18T10:21:56.999Z</time></trkpt><trkpt lat="44.78220632282425" lon="8.350803065652252"><ele>174.71428571428572</ele><time>2026-04-18T10:22:03.999Z</time></trkpt><trkpt lat="44.7822159801944" lon="8.350707438241617"><ele>175.0</ele><time>2026-04-18T10:22:10.999Z</time></trkpt><trkpt lat="44.78222660864613" lon="8.35061640525846"><ele>174.85714285714286</ele><time>2026-04-18T10:22:16.999Z</time></trkpt><trkpt lat="44.78224139402778" lon="8.350516959389369"><ele>174.71428571428572</ele><time>2026-04-18T10:22:24.999Z</time></trkpt><trkpt lat="44.7822837596959" lon="8.350442120116188"><ele>174.57142857142856</ele><time>2026-04-18T10:22:30.999Z</time></trkpt><trkpt lat="44.78229220999725" lon="8.350345272165574"><ele>174.42857142857144</ele><time>2026-04-18T10:22:36.999Z</time></trkpt><trkpt lat="44.78232601991173" lon="8.350256409063984"><ele>174.28571428571428</ele><time>2026-04-18T10:22:42.999Z</time></trkpt><trkpt lat="44.78234228643008" lon="8.350164118881297"><ele>174.14285714285714</ele><time>2026-04-18T10:22:47.999Z</time></trkpt><trkpt lat="44.78236734705847" lon="8.350070644912261"><ele>174.0</ele><time>2026-04-18T10:22:52.998Z</time></trkpt><trkpt lat="44.78238241558105" lon="8.349984182003052"><ele>174.0</ele><time>2026-04-18T10:22:57.998Z</time></trkpt><trkpt lat="44.78241520761424" lon="8.349892648574999"><ele>174.0</ele><time>2026-04-18T10:23:02.998Z</time></trkpt><trkpt lat="44.78244960043644" lon="8.349815668859822"><ele>174.0</ele><time>2026-04-18T10:23:07.998Z</time></trkpt><trkpt lat="44.782473666149095" lon="8.349723168183674"><ele>174.0</ele><time>2026-04-18T10:23:13.998Z</time></trkpt><trkpt lat="44.782500785510095" lon="8.349639943723261"><ele>174.0</ele><time>2026-04-18T10:23:18.998Z</time></trkpt><trkpt lat="44.78250904518006" lon="8.34954207243106"><ele>174.0</ele><time>2026-04-18T10:23:24.998Z</time></trkpt><trkpt lat="44.782521587733676" lon="8.349449318000913"><ele>174.0</ele><time>2026-04-18T10:23:29.999Z</time></trkpt><trkpt lat="44.78256626927537" lon="8.349371275133983"><ele>174.14285714285714</ele><time>2026-04-18T10:23:35.999Z</time></trkpt><trkpt lat="44.78258449639962" lon="8.349274433363682"><ele>174.28571428571428</ele><time>2026-04-18T10:23:41.999Z</time></trkpt><trkpt lat="44.78259321738163" lon="8.349183989107619"><ele>174.42857142857144</ele><time>2026-04-18T10:23:46.999Z</time></trkpt><trkpt lat="44.78259947281294" lon="8.34909541734541"><ele>174.57142857142856</ele><time>2026-04-18T10:23:51.999Z</time></trkpt><trkpt lat="44.7826054760348" lon="8.34899458181108"><ele>174.71428571428572</ele><time>2026-04-18T10:23:57.999Z</time></trkpt><trkpt lat="44.78261159008001" lon="8.348889474824604"><ele>174.85714285714286</ele><time>2026-04-18T10:24:03.999Z</time></trkpt><trkpt lat="44.78261504177033" lon="8.348796201323642"><ele>175.0</ele><time>2026-04-18T10:24:08.999Z</time></trkpt><trkpt lat="44.7826240133707" lon="8.348696458951432"><ele>175.28571428571428</ele><time>2026-04-18T10:24:14.999Z</time></trkpt><trkpt lat="44.78262591533726" lon="8.34860703207465"><ele>175.57142857142856</ele><time>2026-04-18T10:24:19.999Z</time></trkpt><trkpt lat="44.78263902498443" lon="8.34852017452269"><ele>175.85714285714286</ele><time>2026-04-18T10:24:24.999Z</time></trkpt><trkpt lat="44.7826347267727" lon="8.34842877898348"><ele>176.14285714285714</ele><time>2026-04-18T10:24:29.999Z</time></trkpt><trkpt lat="44.78265467134221" lon="8.34833331679106"><ele>176.42857142857142</ele><time>2026-04-18T10:24:35.999Z</time></trkpt><trkpt lat="44.78270101019433" lon="8.348257285988174"><ele>176.71428571428572</ele><time>2026-04-18T10:24:42.999Z</time></trkpt><trkpt lat="44.78276810495507" lon="8.348235351126949"><ele>177.0</ele><time>2026-04-18T10:24:47.999Z</time></trkpt><trkpt lat="44.782837422135096" lon="8.348208476969354"><ele>177.0</ele><time>2026-04-18T10:24:52.999Z</time></trkpt><trkpt lat="44.782905233819" lon="8.348172848473457"><ele>177.0</ele><time>2026-04-18T10:24:57.999Z</time></trkpt><trkpt lat="44.78297978029079" lon="8.348143042833298"><ele>177.0</ele><time>2026-04-18T10:25:02.998Z</time></trkpt><trkpt lat="44.783040392308436" lon="8.34811304898531"><ele>177.0</ele><time>2026-04-18T10:25:07.998Z</time></trkpt><trkpt lat="44.78310826609739" lon="8.348081591390814"><ele>177.0</ele><time>2026-04-18T10:25:12.998Z</time></trkpt><trkpt lat="44.78316829425114" lon="8.348048907886977"><ele>177.0</ele><time>2026-04-18T10:25:17.998Z</time></trkpt><trkpt lat="44.78322901331907" lon="8.34801354426028"><ele>177.0</ele><time>2026-04-18T10:25:22.998Z</time></trkpt><trkpt lat="44.78329356937896" lon="8.347975331511185"><ele>177.66666666666666</ele><time>2026-04-18T10:25:27.998Z</time></trkpt><trkpt lat="44.783368315481795" lon="8.347960162196427"><ele>178.33333333333334</ele><time>2026-04-18T10:25:33Z</time></trkpt><trkpt lat="44.78343828189151" lon="8.347954911356286"><ele>179.0</ele><time>2026-04-18T10:25:38Z</time></trkpt><trkpt lat="44.783508484733154" lon="8.347956328009895"><ele>179.66666666666669</ele><time>2026-04-18T10:25:43Z</time></trkpt><trkpt lat="44.78358012551653" lon="8.347984270987"><ele>180.33333333333334</ele><time>2026-04-18T10:25:48Z</time></trkpt><trkpt lat="44.783637951475875" lon="8.348045017845894"><ele>181.0</ele><time>2026-04-18T10:25:53Z</time></trkpt><trkpt lat="44.783728998325" lon="8.348118344387746"><ele>182.85714285714286</ele><time>2026-04-18T10:26:01Z</time></trkpt><trkpt lat="44.783782463788626" lon="8.348184189172954"><ele>184.71428571428572</ele><time>2026-04-18T10:26:06Z</time></trkpt><trkpt lat="44.78382527821382" lon="8.348257748424878"><ele>186.57142857142856</ele><time>2026-04-18T10:26:10.999Z</time></trkpt><trkpt lat="44.78386778801877" lon="8.348338637853505"><ele>188.42857142857144</ele><time>2026-04-18T10:26:16.999Z</time></trkpt><trkpt lat="44.78388136184099" lon="8.348440283284626"><ele>190.2857142857143</ele><time>2026-04-18T10:26:21.999Z</time></trkpt><trkpt lat="44.78387478203261" lon="8.348535329918132"><ele>192.14285714285714</ele><time>2026-04-18T10:26:25.999Z</time></trkpt><trkpt lat="44.78388594961783" lon="8.34863681543993"><ele>194.0</ele><time>2026-04-18T10:26:31.999Z</time></trkpt><trkpt lat="44.783880267223445" lon="8.348732618228519"><ele>194.0</ele><time>2026-04-18T10:26:36.999Z</time></trkpt><trkpt lat="44.783879891731935" lon="8.348840803283473"><ele>194.0</ele><time>2026-04-18T10:26:41.999Z</time></trkpt><trkpt lat="44.783871827888746" lon="8.34893209479"><ele>194.0</ele><time>2026-04-18T10:26:46.999Z</time></trkpt><trkpt lat="44.78386183602802" lon="8.349020294528101"><ele>194.0</ele><time>2026-04-18T10:26:51.999Z</time></trkpt><trkpt lat="44.78385263272788" lon="8.349112127062753"><ele>194.0</ele><time>2026-04-18T10:26:56.999Z</time></trkpt><trkpt lat="44.78384355991388" lon="8.349203196526558"><ele>194.0</ele><time>2026-04-18T10:27:01.999Z</time></trkpt><trkpt lat="44.78382542196549" lon="8.349317541691738"><ele>194.0</ele><time>2026-04-18T10:27:08.999Z</time></trkpt><trkpt lat="44.783823819473355" lon="8.349417150128112"><ele>193.85714285714286</ele><time>2026-04-18T10:27:15.999Z</time></trkpt><trkpt lat="44.78383991256706" lon="8.349511276537239"><ele>193.71428571428572</ele><time>2026-04-18T10:27:21.999Z</time></trkpt><trkpt lat="44.78387168189812" lon="8.34959958307198"><ele>193.57142857142858</ele><time>2026-04-18T10:27:27.999Z</time></trkpt><trkpt lat="44.78390307295469" lon="8.349688182747522"><ele>193.42857142857144</ele><time>2026-04-18T10:27:32.999Z</time></trkpt><trkpt lat="44.78395598715656" lon="8.349754086548803"><ele>193.28571428571428</ele><time>2026-04-18T10:27:39Z</time></trkpt><trkpt lat="44.784002440886816" lon="8.349836316581975"><ele>193.14285714285717</ele><time>2026-04-18T10:27:45Z</time></trkpt><trkpt lat="44.78404645789238" lon="8.349915620062054"><ele>193.0</ele><time>2026-04-18T10:27:50Z</time></trkpt><trkpt lat="44.78410507091888" lon="8.349965061065857"><ele>192.71428571428572</ele><time>2026-04-18T10:27:57Z</time></trkpt><trkpt lat="44.78415346095021" lon="8.350030100394717"><ele>192.42857142857144</ele><time>2026-04-18T10:28:02Z</time></trkpt><trkpt lat="44.78421614857674" lon="8.350039046840946"><ele>192.14285714285717</ele><time>2026-04-18T10:28:07Z</time></trkpt><trkpt lat="44.78428135158979" lon="8.349994356632834"><ele>191.85714285714286</ele><time>2026-04-18T10:28:11.999Z</time></trkpt><trkpt lat="44.78431495179053" lon="8.34991029789472"><ele>191.57142857142856</ele><time>2026-04-18T10:28:17.999Z</time></trkpt><trkpt lat="44.784360310186386" lon="8.349830063864632"><ele>191.2857142857143</ele><time>2026-04-18T10:28:24.999Z</time></trkpt><trkpt lat="44.78439871580214" lon="8.349753064180971"><ele>191.0</ele><time>2026-04-18T10:28:30.999Z</time></trkpt><trkpt lat="44.78442291735506" lon="8.349663550665667"><ele>193.0</ele><time>2026-04-18T10:28:35.999Z</time></trkpt><trkpt lat="44.78447505625345" lon="8.3496050910632"><ele>195.0</ele><time>2026-04-18T10:28:44.999Z</time></trkpt><trkpt lat="44.78451929943479" lon="8.349534353566236"><ele>197.0</ele><time>2026-04-18T10:28:50.999Z</time></trkpt><trkpt lat="44.784542058143465" lon="8.349450003119768"><ele>199.0</ele><time>2026-04-18T10:28:58.999Z</time></trkpt><trkpt lat="44.78456472472571" lon="8.34935883851805"><ele>201.0</ele><time>2026-04-18T10:29:05.999Z</time></trkpt><trkpt lat="44.784561547070545" lon="8.349267727838413"><ele>203.0</ele><time>2026-04-18T10:29:11.999Z</time></trkpt><trkpt lat="44.78453267363991" lon="8.349182585572974"><ele>205.0</ele><time>2026-04-18T10:29:19.999Z</time></trkpt><trkpt lat="44.78448689502978" lon="8.349111018056194"><ele>205.0</ele><time>2026-04-18T10:29:26.999Z</time></trkpt><trkpt lat="44.78443518491069" lon="8.349045772129724"><ele>205.0</ele><time>2026-04-18T10:29:32.999Z</time></trkpt><trkpt lat="44.78439266188725" lon="8.348980134384403"><ele>205.0</ele><time>2026-04-18T10:29:39.999Z</time></trkpt><trkpt lat="44.78434633963551" lon="8.348908729902302"><ele>205.0</ele><time>2026-04-18T10:29:47Z</time></trkpt><trkpt lat="44.784312011278786" lon="8.348823533420921"><ele>205.0</ele><time>2026-04-18T10:29:54Z</time></trkpt><trkpt lat="44.78430043007642" lon="8.348724103268498"><ele>205.0</ele><time>2026-04-18T10:30:00Z</time></trkpt><trkpt lat="44.78431015710537" lon="8.34863251012246"><ele>205.0</ele><time>2026-04-18T10:30:06Z</time></trkpt><trkpt lat="44.784313667767655" lon="8.348537705422679"><ele>206.42857142857144</ele><time>2026-04-18T10:30:11Z</time></trkpt><trkpt lat="44.78434223506631" lon="8.348450837630402"><ele>207.85714285714283</ele><time>2026-04-18T10:30:19Z</time></trkpt><trkpt lat="44.78437025619289" lon="8.348366514533373"><ele>209.28571428571428</ele><time>2026-04-18T10:30:26Z</time></trkpt><trkpt lat="44.78440844751092" lon="8.348291538328183"><ele>210.71428571428572</ele><time>2026-04-18T10:30:32.999Z</time></trkpt><trkpt lat="44.78445149501188" lon="8.348220425504582"><ele>212.14285714285717</ele><time>2026-04-18T10:30:42.999Z</time></trkpt><trkpt lat="44.78449541358284" lon="8.348147752319438"><ele>213.57142857142856</ele><time>2026-04-18T10:30:50.999Z</time></trkpt><trkpt lat="44.7845381751291" lon="8.348075342459618"><ele>215.0</ele><time>2026-04-18T10:30:56.999Z</time></trkpt><trkpt lat="44.78458630013735" lon="8.348013920467285"><ele>215.0</ele><time>2026-04-18T10:31:04.999Z</time></trkpt><trkpt lat="44.78463534339545" lon="8.347956167890375"><ele>215.0</ele><time>2026-04-18T10:31:10.999Z</time></trkpt><trkpt lat="44.78469085713893" lon="8.347893681660794"><ele>215.0</ele><time>2026-04-18T10:31:17.999Z</time></trkpt><trkpt lat="44.78474745417429" lon="8.347843945989036"><ele>215.0</ele><time>2026-04-18T10:31:24.999Z</time></trkpt><trkpt lat="44.78478623367394" lon="8.347765011983583"><ele>215.0</ele><time>2026-04-18T10:31:30.999Z</time></trkpt><trkpt lat="44.78481462364703" lon="8.347675714750286"><ele>215.0</ele><time>2026-04-18T10:31:37.999Z</time></trkpt><trkpt lat="44.78484996197003" lon="8.34759243533344"><ele>215.0</ele><time>2026-04-18T10:31:44.999Z</time></trkpt><trkpt lat="44.78489317051184" lon="8.347527838172448"><ele>215.0</ele><time>2026-04-18T10:31:51Z</time></trkpt><trkpt lat="44.784949481909706" lon="8.347476870062398"><ele>215.0</ele><time>2026-04-18T10:32:00Z</time></trkpt><trkpt lat="44.785001951555536" lon="8.347548193080753"><ele>215.0</ele><time>2026-04-18T10:32:04Z</time></trkpt><trkpt lat="44.78507413329575" lon="8.34757833928341"><ele>215.0</ele><time>2026-04-18T10:32:09Z</time></trkpt><trkpt lat="44.78513548764918" lon="8.347618767501812"><ele>215.0</ele><time>2026-04-18T10:32:17Z</time></trkpt><trkpt lat="44.7852131490974" lon="8.347619785726957"><ele>215.0</ele><time>2026-04-18T10:32:22Z</time></trkpt><trkpt lat="44.78527009993687" lon="8.347559144973566"><ele>215.0</ele><time>2026-04-18T10:32:28Z</time></trkpt><trkpt lat="44.78530639948984" lon="8.347475199035665"><ele>215.14285714285714</ele><time>2026-04-18T10:32:33Z</time></trkpt><trkpt lat="44.78534558542179" lon="8.347398792197989"><ele>215.2857142857143</ele><time>2026-04-18T10:32:39Z</time></trkpt><trkpt lat="44.78537521906905" lon="8.347317239806195"><ele>215.42857142857144</ele><time>2026-04-18T10:32:46Z</time></trkpt><trkpt lat="44.785417444126956" lon="8.347250210483386"><ele>215.57142857142856</ele><time>2026-04-18T10:32:52Z</time></trkpt><trkpt lat="44.78546396906909" lon="8.347187768591139"><ele>215.71428571428572</ele><time>2026-04-18T10:32:57Z</time></trkpt><trkpt lat="44.78551897315462" lon="8.347123036845929"><ele>215.85714285714286</ele><time>2026-04-18T10:33:03Z</time></trkpt><trkpt lat="44.78556401896336" lon="8.347060824458966"><ele>216.0</ele><time>2026-04-18T10:33:08Z</time></trkpt><trkpt lat="44.78561399344731" lon="8.346992865674483"><ele>217.42857142857142</ele><time>2026-04-18T10:33:13.999Z</time></trkpt><trkpt lat="44.78566667137623" lon="8.346913330427435"><ele>218.85714285714283</ele><time>2026-04-18T10:33:19.999Z</time></trkpt><trkpt lat="44.785728454018695" lon="8.346842776644802"><ele>220.28571428571428</ele><time>2026-04-18T10:33:27.999Z</time></trkpt><trkpt lat="44.78577560900202" lon="8.346777705543236"><ele>221.71428571428572</ele><time>2026-04-18T10:33:34.999Z</time></trkpt><trkpt lat="44.78579515137675" lon="8.346680749892808"><ele>223.14285714285714</ele><time>2026-04-18T10:33:41.999Z</time></trkpt><trkpt lat="44.785771711262306" lon="8.346575067908963"><ele>224.57142857142858</ele><time>2026-04-18T10:33:47.999Z</time></trkpt><trkpt lat="44.78581565901086" lon="8.346496427967073"><ele>226.0</ele><time>2026-04-18T10:33:57Z</time></trkpt><trkpt lat="44.785825819777344" lon="8.346403023359535"><ele>226.28571428571428</ele><time>2026-04-18T10:34:02Z</time></trkpt><trkpt lat="44.7858377783278" lon="8.346307239042146"><ele>226.57142857142856</ele><time>2026-04-18T10:34:08Z</time></trkpt><trkpt lat="44.78586595758574" lon="8.346217033927088"><ele>226.85714285714283</ele><time>2026-04-18T10:34:15Z</time></trkpt><trkpt lat="44.78589534277636" lon="8.346131522667465"><ele>227.14285714285714</ele><time>2026-04-18T10:34:20Z</time></trkpt><trkpt lat="44.785920393917124" lon="8.346036479534561"><ele>227.4285714285714</ele><time>2026-04-18T10:34:28Z</time></trkpt><trkpt lat="44.785953867745995" lon="8.345960232433018"><ele>227.7142857142857</ele><time>2026-04-18T10:34:33Z</time></trkpt><trkpt lat="44.785987699908866" lon="8.345875899361253"><ele>228.0</ele><time>2026-04-18T10:34:38Z</time></trkpt><trkpt lat="44.78601593395922" lon="8.345794650552403"><ele>227.7142857142857</ele><time>2026-04-18T10:34:44Z</time></trkpt><trkpt lat="44.78604968022163" lon="8.345715605581413"><ele>227.4285714285714</ele><time>2026-04-18T10:34:50Z</time></trkpt><trkpt lat="44.78607808140876" lon="8.34563108043576"><ele>227.14285714285714</ele><time>2026-04-18T10:34:56Z</time></trkpt><trkpt lat="44.78610103047112" lon="8.345530549342872"><ele>226.85714285714283</ele><time>2026-04-18T10:35:02Z</time></trkpt><trkpt lat="44.7861190281084" lon="8.345437757680145"><ele>226.57142857142856</ele><time>2026-04-18T10:35:08Z</time></trkpt><trkpt lat="44.786111357797836" lon="8.34534475973017"><ele>226.28571428571428</ele><time>2026-04-18T10:35:12.999Z</time></trkpt><trkpt lat="44.78610863260772" lon="8.345254079726221"><ele>226.0</ele><time>2026-04-18T10:35:16.999Z</time></trkpt><trkpt lat="44.78610942758763" lon="8.345148958782353"><ele>226.0</ele><time>2026-04-18T10:35:21.999Z</time></trkpt><trkpt lat="44.786098902278674" lon="8.345042827860695"><ele>226.0</ele><time>2026-04-18T10:35:27.999Z</time></trkpt><trkpt lat="44.78609212055188" lon="8.344936730927301"><ele>226.0</ele><time>2026-04-18T10:35:32.999Z</time></trkpt><trkpt lat="44.786095108788686" lon="8.344833279889388"><ele>226.0</ele><time>2026-04-18T10:35:37.999Z</time></trkpt><trkpt lat="44.78608861578943" lon="8.34472948263055"><ele>226.0</ele><time>2026-04-18T10:35:43.999Z</time></trkpt><trkpt lat="44.78609294859038" lon="8.344625475852093"><ele>226.0</ele><time>2026-04-18T10:35:49.999Z</time></trkpt><trkpt lat="44.78610281307306" lon="8.344530611753271"><ele>226.0</ele><time>2026-04-18T10:35:54.999Z</time></trkpt><trkpt lat="44.78610050466167" lon="8.344427007055758"><ele>225.0</ele><time>2026-04-18T10:36:00.999Z</time></trkpt><trkpt lat="44.78609848720252" lon="8.344329382946604"><ele>224.0</ele><time>2026-04-18T10:36:08Z</time></trkpt><trkpt lat="44.786109132807866" lon="8.34423582960825"><ele>223.0</ele><time>2026-04-18T10:36:13Z</time></trkpt><trkpt lat="44.78611330674098" lon="8.344144291935057"><ele>222.0</ele><time>2026-04-18T10:36:17.999Z</time></trkpt><trkpt lat="44.786100201138474" lon="8.344053606034509"><ele>221.0</ele><time>2026-04-18T10:36:22.998Z</time></trkpt><trkpt lat="44.786078391043816" lon="8.34396651190214"><ele>220.0</ele><time>2026-04-18T10:36:27.997Z</time></trkpt><trkpt lat="44.78604870469236" lon="8.343887505480296"><ele>219.0</ele><time>2026-04-18T10:36:32.996Z</time></trkpt><trkpt lat="44.78603395735417" lon="8.343789719404896"><ele>219.42857142857144</ele><time>2026-04-18T10:36:37.996Z</time></trkpt><trkpt lat="44.786014691715955" lon="8.343693686686999"><ele>219.85714285714283</ele><time>2026-04-18T10:36:42.996Z</time></trkpt><trkpt lat="44.785990808908004" lon="8.34359256063092"><ele>220.28571428571428</ele><time>2026-04-18T10:36:47.995Z</time></trkpt><trkpt lat="44.78598721852705" lon="8.343494266642892"><ele>220.71428571428572</ele><time>2026-04-18T10:36:52.995Z</time></trkpt><trkpt lat="44.78597177590421" lon="8.343395447048549"><ele>221.14285714285717</ele><time>2026-04-18T10:36:57.995Z</time></trkpt><trkpt lat="44.785949685876986" lon="8.343297767222735"><ele>221.57142857142856</ele><time>2026-04-18T10:37:06.995Z</time></trkpt><trkpt lat="44.785926028170756" lon="8.343197194152758"><ele>222.0</ele><time>2026-04-18T10:37:12.994Z</time></trkpt><trkpt lat="44.78590059958964" lon="8.343113977770393"><ele>222.28571428571428</ele><time>2026-04-18T10:37:17.994Z</time></trkpt><trkpt lat="44.78587180232373" lon="8.343032468578373"><ele>222.57142857142858</ele><time>2026-04-18T10:37:21.994Z</time></trkpt><trkpt lat="44.78583488381282" lon="8.342945389311007"><ele>222.85714285714286</ele><time>2026-04-18T10:37:29.994Z</time></trkpt><trkpt lat="44.785847696157276" lon="8.342850928859665"><ele>223.14285714285714</ele><time>2026-04-18T10:37:35.994Z</time></trkpt><trkpt lat="44.78582468638249" lon="8.34275048488078"><ele>223.42857142857144</ele><time>2026-04-18T10:37:40.994Z</time></trkpt><trkpt lat="44.78583332044192" lon="8.342661936984106"><ele>223.71428571428572</ele><time>2026-04-18T10:37:45.994Z</time></trkpt><trkpt lat="44.78583176476773" lon="8.342556740440509"><ele>224.0</ele><time>2026-04-18T10:37:51.994Z</time></trkpt><trkpt lat="44.78583916908916" lon="8.342459063777808"><ele>224.0</ele><time>2026-04-18T10:37:57.994Z</time></trkpt><trkpt lat="44.78584066128645" lon="8.342361033684844"><ele>224.0</ele><time>2026-04-18T10:38:03.994Z</time></trkpt><trkpt lat="44.78584236860905" lon="8.34225802356372"><ele>224.0</ele><time>2026-04-18T10:38:09.994Z</time></trkpt><trkpt lat="44.78584641736312" lon="8.34216388166766"><ele>224.0</ele><time>2026-04-18T10:38:14.996Z</time></trkpt><trkpt lat="44.785851824765636" lon="8.342056460000858"><ele>224.0</ele><time>2026-04-18T10:38:20.997Z</time></trkpt><trkpt lat="44.7858440223147" lon="8.341965483478603"><ele>224.0</ele><time>2026-04-18T10:38:25.998Z</time></trkpt><trkpt lat="44.785836030758915" lon="8.34185989042609"><ele>224.0</ele><time>2026-04-18T10:38:31.998Z</time></trkpt><trkpt lat="44.78582516868806" lon="8.341769807150607"><ele>223.71428571428572</ele><time>2026-04-18T10:38:36.999Z</time></trkpt><trkpt lat="44.78583109072157" lon="8.341667510049957"><ele>223.42857142857144</ele><time>2026-04-18T10:38:42.999Z</time></trkpt><trkpt lat="44.78581728352491" lon="8.341579470318967"><ele>223.14285714285714</ele><time>2026-04-18T10:38:47.999Z</time></trkpt><trkpt lat="44.785801498994" lon="8.341487992097589"><ele>222.85714285714286</ele><time>2026-04-18T10:38:52.999Z</time></trkpt><trkpt lat="44.78578701030164" lon="8.341396537497056"><ele>222.57142857142858</ele><time>2026-04-18T10:38:58.999Z</time></trkpt><trkpt lat="44.78576373817215" lon="8.34130806491891"><ele>222.28571428571428</ele><time>2026-04-18T10:39:02.999Z</time></trkpt><trkpt lat="44.785742829531735" lon="8.341209671991976"><ele>222.0</ele><time>2026-04-18T10:39:09.999Z</time></trkpt><trkpt lat="44.78572678021765" lon="8.341111835988718"><ele>222.0</ele><time>2026-04-18T10:39:14.999Z</time></trkpt><trkpt lat="44.785702535368415" lon="8.34102795025734"><ele>222.0</ele><time>2026-04-18T10:39:18.999Z</time></trkpt><trkpt lat="44.78567797014066" lon="8.34093798133964"><ele>222.0</ele><time>2026-04-18T10:39:23.998Z</time></trkpt><trkpt lat="44.78565779844028" lon="8.340852209518207"><ele>222.0</ele><time>2026-04-18T10:39:28.998Z</time></trkpt><trkpt lat="44.78563415284867" lon="8.340759949582377"><ele>222.0</ele><time>2026-04-18T10:39:33.998Z</time></trkpt><trkpt lat="44.7856011011778" lon="8.340680684711693"><ele>222.0</ele><time>2026-04-18T10:39:38.998Z</time></trkpt><trkpt lat="44.78557412250421" lon="8.340593852684892"><ele>222.0</ele><time>2026-04-18T10:39:43.998Z</time></trkpt><trkpt lat="44.78554414839865" lon="8.34050983540324"><ele>222.0</ele><time>2026-04-18T10:39:48.998Z</time></trkpt><trkpt lat="44.78552187204632" lon="8.340424744480476"><ele>222.0</ele><time>2026-04-18T10:39:53.998Z</time></trkpt><trkpt lat="44.78548883862177" lon="8.340330824513035"><ele>222.0</ele><time>2026-04-18T10:39:59.998Z</time></trkpt><trkpt lat="44.785459560793406" lon="8.340239103990179"><ele>222.0</ele><time>2026-04-18T10:40:05.998Z</time></trkpt><trkpt lat="44.785427500646286" lon="8.340145740361688"><ele>222.0</ele><time>2026-04-18T10:40:11.998Z</time></trkpt><trkpt lat="44.78540070187371" lon="8.340058180966752"><ele>222.0</ele><time>2026-04-18T10:40:16.998Z</time></trkpt><trkpt lat="44.785372759258884" lon="8.339975003503907"><ele>222.0</ele><time>2026-04-18T10:40:21.998Z</time></trkpt><trkpt lat="44.78535047136055" lon="8.33988626258254"><ele>222.0</ele><time>2026-04-18T10:40:26.998Z</time></trkpt><trkpt lat="44.785311370474055" lon="8.339810162531812"><ele>222.0</ele><time>2026-04-18T10:40:31.998Z</time></trkpt><trkpt lat="44.78526107585876" lon="8.339734204318002"><ele>222.0</ele><time>2026-04-18T10:40:37.998Z</time></trkpt><trkpt lat="44.78522038766289" lon="8.33964672236342"><ele>222.0</ele><time>2026-04-18T10:40:44.999Z</time></trkpt><trkpt lat="44.78518043095544" lon="8.339575715327738"><ele>222.0</ele><time>2026-04-18T10:40:50.999Z</time></trkpt><trkpt lat="44.785132443864356" lon="8.339494281599837"><ele>222.0</ele><time>2026-04-18T10:40:56.999Z</time></trkpt><trkpt lat="44.78509140295133" lon="8.339426295146637"><ele>222.0</ele><time>2026-04-18T10:41:01.999Z</time></trkpt><trkpt lat="44.78505600261571" lon="8.339349853091502"><ele>222.57142857142856</ele><time>2026-04-18T10:41:07.999Z</time></trkpt><trkpt lat="44.785036905415254" lon="8.339255893107715"><ele>223.14285714285717</ele><time>2026-04-18T10:41:12.998Z</time></trkpt><trkpt lat="44.78499826702159" lon="8.339175532906156"><ele>223.71428571428572</ele><time>2026-04-18T10:41:17.998Z</time></trkpt><trkpt lat="44.78495530820435" lon="8.339103162469314"><ele>224.28571428571428</ele><time>2026-04-18T10:41:22.998Z</time></trkpt><trkpt lat="44.78490468578305" lon="8.339027101954416"><ele>224.85714285714283</ele><time>2026-04-18T10:41:28.998Z</time></trkpt><trkpt lat="44.784855935131" lon="8.338968064570414"><ele>225.42857142857144</ele><time>2026-04-18T10:41:33.998Z</time></trkpt><trkpt lat="44.7848099045373" lon="8.338907004041323"><ele>226.0</ele><time>2026-04-18T10:41:38.998Z</time></trkpt><trkpt lat="44.78475651671151" lon="8.338844434614728"><ele>226.0</ele><time>2026-04-18T10:41:44.998Z</time></trkpt><trkpt lat="44.78471530065596" lon="8.338771834167465"><ele>226.0</ele><time>2026-04-18T10:41:49.998Z</time></trkpt><trkpt lat="44.78466734586957" lon="8.3387077683196"><ele>226.0</ele><time>2026-04-18T10:41:54.998Z</time></trkpt><trkpt lat="44.784600557181946" lon="8.338641496387957"><ele>226.0</ele><time>2026-04-18T10:42:00.998Z</time></trkpt><trkpt lat="44.78453622116039" lon="8.338627548940053"><ele>226.0</ele><time>2026-04-18T10:42:04.998Z</time></trkpt><trkpt lat="44.78449736007317" lon="8.338527506592841"><ele>226.0</ele><time>2026-04-18T10:42:11.998Z</time></trkpt><trkpt lat="44.7844449708501" lon="8.338469384118161"><ele>226.0</ele><time>2026-04-18T10:42:16.998Z</time></trkpt><trkpt lat="44.78435195073195" lon="8.338458761034184"><ele>226.57142857142858</ele><time>2026-04-18T10:42:30.998Z</time></trkpt><trkpt lat="44.784279080531974" lon="8.338409189594302"><ele>227.1428571428571</ele><time>2026-04-18T10:42:37.998Z</time></trkpt><trkpt lat="44.78420859737878" lon="8.338376813860645"><ele>227.7142857142857</ele><time>2026-04-18T10:42:40.999Z</time></trkpt><trkpt lat="44.78414325760026" lon="8.338337174622543"><ele>228.28571428571428</ele><time>2026-04-18T10:42:47.999Z</time></trkpt><trkpt lat="44.78407328832314" lon="8.3383379734112"><ele>228.85714285714283</ele><time>2026-04-18T10:42:53.999Z</time></trkpt><trkpt lat="44.784008047712" lon="8.338325885615513"><ele>229.4285714285714</ele><time>2026-04-18T10:42:59.999Z</time></trkpt><trkpt lat="44.78393492824836" lon="8.338301777709095"><ele>229.99999999999997</ele><time>2026-04-18T10:43:06.999Z</time></trkpt><trkpt lat="44.78386081951065" lon="8.338293662085423"><ele>229.99999999999997</ele><time>2026-04-18T10:43:12.999Z</time></trkpt><trkpt lat="44.78379295333608" lon="8.338277852457097"><ele>230.0</ele><time>2026-04-18T10:43:18.999Z</time></trkpt><trkpt lat="44.78372084259357" lon="8.338261790398333"><ele>229.99999999999997</ele><time>2026-04-18T10:43:25.999Z</time></trkpt><trkpt lat="44.78364539137865" lon="8.338237667550962"><ele>229.99999999999997</ele><time>2026-04-18T10:43:31.999Z</time></trkpt><trkpt lat="44.78357383895879" lon="8.33822788436267"><ele>230.0</ele><time>2026-04-18T10:43:36.999Z</time></trkpt><trkpt lat="44.78350988944215" lon="8.33825650000699"><ele>229.99999999999997</ele><time>2026-04-18T10:43:41.999Z</time></trkpt><trkpt lat="44.78342796099679" lon="8.338268232266826"><ele>229.99999999999997</ele><time>2026-04-18T10:43:47.999Z</time></trkpt><trkpt lat="44.78335949154028" lon="8.338270081417049"><ele>228.1428571428571</ele><time>2026-04-18T10:43:52.999Z</time></trkpt><trkpt lat="44.783288179211944" lon="8.338280543169795"><ele>226.28571428571428</ele><time>2026-04-18T10:43:57.999Z</time></trkpt><trkpt lat="44.78322077186989" lon="8.338289548530444"><ele>224.42857142857142</ele><time>2026-04-18T10:44:02.999Z</time></trkpt><trkpt lat="44.783157466928536" lon="8.338315582729624"><ele>222.57142857142856</ele><time>2026-04-18T10:44:07.999Z</time></trkpt><trkpt lat="44.783073501372556" lon="8.338313820311209"><ele>220.71428571428572</ele><time>2026-04-18T10:44:12.999Z</time></trkpt><trkpt lat="44.783007674711484" lon="8.338326169596362"><ele>218.85714285714286</ele><time>2026-04-18T10:44:18.999Z</time></trkpt><trkpt lat="44.78294304378904" lon="8.338323918345868"><ele>217.0</ele><time>2026-04-18T10:44:23.999Z</time></trkpt><trkpt lat="44.78287823631714" lon="8.338312869697319"><ele>217.0</ele><time>2026-04-18T10:44:28.998Z</time></trkpt><trkpt lat="44.78281207506292" lon="8.338325852353512"><ele>217.0</ele><time>2026-04-18T10:44:33.998Z</time></trkpt><trkpt lat="44.78279240148185" lon="8.338418397052735"><ele>217.0</ele><time>2026-04-18T10:44:38.999Z</time></trkpt><trkpt lat="44.782792408491474" lon="8.338523725559417"><ele>217.0</ele><time>2026-04-18T10:44:44.999Z</time></trkpt><trkpt lat="44.78283195053407" lon="8.338604355163207"><ele>217.0</ele><time>2026-04-18T10:44:50.999Z</time></trkpt><trkpt lat="44.78284976925858" lon="8.338694281472312"><ele>217.0</ele><time>2026-04-18T10:44:55.999Z</time></trkpt><trkpt lat="44.78285781130622" lon="8.338795539896926"><ele>217.0</ele><time>2026-04-18T10:45:00.999Z</time></trkpt><trkpt lat="44.782854859173526" lon="8.338904830795743"><ele>215.71428571428572</ele><time>2026-04-18T10:45:05.999Z</time></trkpt><trkpt lat="44.78284509392956" lon="8.339001428078364"><ele>214.42857142857144</ele><time>2026-04-18T10:45:10.999Z</time></trkpt><trkpt lat="44.78282917437677" lon="8.339089711021014"><ele>213.14285714285714</ele><time>2026-04-18T10:45:15.999Z</time></trkpt><trkpt lat="44.782805861930164" lon="8.339196345899447"><ele>211.85714285714286</ele><time>2026-04-18T10:45:20.999Z</time></trkpt><trkpt lat="44.78277065581811" lon="8.339273611911972"><ele>210.57142857142858</ele><time>2026-04-18T10:45:25.999Z</time></trkpt><trkpt lat="44.78272597319327" lon="8.33935093147225"><ele>209.28571428571428</ele><time>2026-04-18T10:45:30.999Z</time></trkpt><trkpt lat="44.78268672088435" lon="8.339439413146977"><ele>208.0</ele><time>2026-04-18T10:45:35.999Z</time></trkpt><trkpt lat="44.78264939768514" lon="8.339525758707316"><ele>206.57142857142856</ele><time>2026-04-18T10:45:40.999Z</time></trkpt><trkpt lat="44.782609878662775" lon="8.339606775351038"><ele>205.14285714285717</ele><time>2026-04-18T10:45:45.999Z</time></trkpt><trkpt lat="44.782567846705724" lon="8.339687600821815"><ele>203.71428571428572</ele><time>2026-04-18T10:45:50.999Z</time></trkpt><trkpt lat="44.78253134919502" lon="8.339773886475685"><ele>202.28571428571428</ele><time>2026-04-18T10:45:55.999Z</time></trkpt><trkpt lat="44.78248369034768" lon="8.33985644514738"><ele>200.85714285714283</ele><time>2026-04-18T10:46:00.999Z</time></trkpt><trkpt lat="44.78244019118368" lon="8.339942847042638"><ele>199.42857142857144</ele><time>2026-04-18T10:46:05.999Z</time></trkpt><trkpt lat="44.78239101256583" lon="8.340028458922792"><ele>198.0</ele><time>2026-04-18T10:46:10.999Z</time></trkpt><trkpt lat="44.782343885212704" lon="8.340115999034355"><ele>198.0</ele><time>2026-04-18T10:46:15.999Z</time></trkpt><trkpt lat="44.782298830639036" lon="8.34018440248501"><ele>198.0</ele><time>2026-04-18T10:46:19.999Z</time></trkpt><trkpt lat="44.78226883732393" lon="8.340271562272342"><ele>198.0</ele><time>2026-04-18T10:46:23.999Z</time></trkpt><trkpt lat="44.78221702993822" lon="8.340353049190766"><ele>198.0</ele><time>2026-04-18T10:46:28.999Z</time></trkpt><trkpt lat="44.78216581628013" lon="8.340420712387678"><ele>198.0</ele><time>2026-04-18T10:46:33.999Z</time></trkpt><trkpt lat="44.782117815146194" lon="8.340501004525038"><ele>198.0</ele><time>2026-04-18T10:46:38.999Z</time></trkpt><trkpt lat="44.782078071221896" lon="8.340572353830428"><ele>198.0</ele><time>2026-04-18T10:46:42.999Z</time></trkpt><trkpt lat="44.78202807713406" lon="8.340630229223327"><ele>198.85714285714286</ele><time>2026-04-18T10:46:46.999Z</time></trkpt><trkpt lat="44.7819743018041" lon="8.340707521033968"><ele>199.7142857142857</ele><time>2026-04-18T10:46:51.999Z</time></trkpt><trkpt lat="44.78192905538162" lon="8.34077120829267"><ele>200.57142857142856</ele><time>2026-04-18T10:46:55.999Z</time></trkpt><trkpt lat="44.78188324759602" lon="8.340857665777987"><ele>201.42857142857144</ele><time>2026-04-18T10:47:00.999Z</time></trkpt><trkpt lat="44.781831290112436" lon="8.340935190367546"><ele>202.28571428571428</ele><time>2026-04-18T10:47:05.999Z</time></trkpt><trkpt lat="44.781775830052" lon="8.340987052420854"><ele>203.14285714285714</ele><time>2026-04-18T10:47:09.999Z</time></trkpt><trkpt lat="44.781741950518274" lon="8.341062312783759"><ele>204.0</ele><time>2026-04-18T10:47:13.999Z</time></trkpt><trkpt lat="44.78168973061121" lon="8.341141457846344"><ele>202.28571428571428</ele><time>2026-04-18T10:47:19Z</time></trkpt><trkpt lat="44.78163498670622" lon="8.341198780681937"><ele>200.57142857142858</ele><time>2026-04-18T10:47:23Z</time></trkpt><trkpt lat="44.78159804568769" lon="8.341277542036767"><ele>198.85714285714283</ele><time>2026-04-18T10:47:27Z</time></trkpt><trkpt lat="44.78154889600692" lon="8.341342150938369"><ele>197.14285714285714</ele><time>2026-04-18T10:47:31Z</time></trkpt><trkpt lat="44.78150227010014" lon="8.341416038937426"><ele>195.42857142857142</ele><time>2026-04-18T10:47:35Z</time></trkpt><trkpt lat="44.78145840026759" lon="8.341484115873593"><ele>193.7142857142857</ele><time>2026-04-18T10:47:39Z</time></trkpt><trkpt lat="44.781414438308744" lon="8.341556718323593"><ele>192.0</ele><time>2026-04-18T10:47:43Z</time></trkpt><trkpt lat="44.781358039691405" lon="8.341634843089894"><ele>191.99999999999997</ele><time>2026-04-18T10:47:48Z</time></trkpt><trkpt lat="44.781310355863646" lon="8.341702161862049"><ele>192.0</ele><time>2026-04-18T10:47:52Z</time></trkpt><trkpt lat="44.78126661527207" lon="8.34177083697423"><ele>192.0</ele><time>2026-04-18T10:47:56Z</time></trkpt><trkpt lat="44.7812255084833" lon="8.341840724991766"><ele>192.0</ele><time>2026-04-18T10:48:00Z</time></trkpt><trkpt lat="44.781183911599925" lon="8.341914557913523"><ele>192.0</ele><time>2026-04-18T10:48:04Z</time></trkpt><trkpt lat="44.78114130877515" lon="8.34198435679083"><ele>191.99999999999997</ele><time>2026-04-18T10:48:08Z</time></trkpt><trkpt lat="44.78110867705353" lon="8.342070280454356"><ele>192.0</ele><time>2026-04-18T10:48:12Z</time></trkpt><trkpt lat="44.78105562268448" lon="8.342126929607382"><ele>188.33333333333334</ele><time>2026-04-18T10:48:16Z</time></trkpt><trkpt lat="44.78100677659324" lon="8.342209886626197"><ele>184.66666666666666</ele><time>2026-04-18T10:48:21Z</time></trkpt><trkpt lat="44.78094610538943" lon="8.342276269988457"><ele>181.0</ele><time>2026-04-18T10:48:26Z</time></trkpt><trkpt lat="44.780899704889045" lon="8.342363464896192"><ele>177.33333333333331</ele><time>2026-04-18T10:48:31Z</time></trkpt><trkpt lat="44.780865690996976" lon="8.342440386995285"><ele>173.66666666666666</ele><time>2026-04-18T10:48:35Z</time></trkpt><trkpt lat="44.78081325760893" lon="8.342527492673085"><ele>170.0</ele><time>2026-04-18T10:48:40Z</time></trkpt><trkpt lat="44.78076711832295" lon="8.342611540306804"><ele>170.0</ele><time>2026-04-18T10:48:45Z</time></trkpt><trkpt lat="44.780719099219326" lon="8.342697124451314"><ele>170.0</ele><time>2026-04-18T10:48:50Z</time></trkpt><trkpt lat="44.780689403095025" lon="8.342782251175224"><ele>170.0</ele><time>2026-04-18T10:48:54Z</time></trkpt><trkpt lat="44.780653506016385" lon="8.34286539372654"><ele>170.0</ele><time>2026-04-18T10:48:58Z</time></trkpt><trkpt lat="44.78061808628744" lon="8.342940451929909"><ele>170.0</ele><time>2026-04-18T10:49:02Z</time></trkpt><trkpt lat="44.780578819551764" lon="8.343036518088464"><ele>170.0</ele><time>2026-04-18T10:49:07Z</time></trkpt><trkpt lat="44.780545976103504" lon="8.343113834095584"><ele>170.0</ele><time>2026-04-18T10:49:11Z</time></trkpt><trkpt lat="44.78050542942516" lon="8.343203921647268"><ele>169.14285714285714</ele><time>2026-04-18T10:49:16Z</time></trkpt><trkpt lat="44.780468045685026" lon="8.343283781471694"><ele>168.28571428571428</ele><time>2026-04-18T10:49:21Z</time></trkpt><trkpt lat="44.78043211545129" lon="8.343369521236838"><ele>167.42857142857142</ele><time>2026-04-18T10:49:26Z</time></trkpt><trkpt lat="44.780390344684925" lon="8.343459143317471"><ele>166.57142857142856</ele><time>2026-04-18T10:49:31Z</time></trkpt><trkpt lat="44.78036918194738" lon="8.343554740997401"><ele>165.71428571428572</ele><time>2026-04-18T10:49:36Z</time></trkpt><trkpt lat="44.780331602992355" lon="8.343645897662396"><ele>164.85714285714283</ele><time>2026-04-18T10:49:41Z</time></trkpt><trkpt lat="44.78029650717573" lon="8.343737974220957"><ele>164.0</ele><time>2026-04-18T10:49:46Z</time></trkpt><trkpt lat="44.780266968822275" lon="8.343824931630172"><ele>163.42857142857142</ele><time>2026-04-18T10:49:51Z</time></trkpt><trkpt lat="44.78022998093287" lon="8.343914163632684"><ele>162.85714285714286</ele><time>2026-04-18T10:49:56Z</time></trkpt><trkpt lat="44.78019499157742" lon="8.344000930478998"><ele>162.28571428571428</ele><time>2026-04-18T10:50:01Z</time></trkpt><trkpt lat="44.78016001557967" lon="8.344093008432262"><ele>161.71428571428572</ele><time>2026-04-18T10:50:06Z</time></trkpt><trkpt lat="44.7801220558987" lon="8.34418585516477"><ele>161.14285714285714</ele><time>2026-04-18T10:50:11Z</time></trkpt><trkpt lat="44.78008064729858" lon="8.344269097338978"><ele>160.57142857142856</ele><time>2026-04-18T10:50:16Z</time></trkpt><trkpt lat="44.780043847741894" lon="8.344363561365968"><ele>160.0</ele><time>2026-04-18T10:50:21Z</time></trkpt><trkpt lat="44.78000038179943" lon="8.344445557054643"><ele>159.57142857142856</ele><time>2026-04-18T10:50:26Z</time></trkpt><trkpt lat="44.779956906924994" lon="8.344522865758009"><ele>159.14285714285714</ele><time>2026-04-18T10:50:31Z</time></trkpt><trkpt lat="44.779906367905205" lon="8.344601823223426"><ele>158.71428571428572</ele><time>2026-04-18T10:50:36Z</time></trkpt><trkpt lat="44.779861597592514" lon="8.344683340583336"><ele>158.28571428571428</ele><time>2026-04-18T10:50:41Z</time></trkpt><trkpt lat="44.77980682484132" lon="8.344753493785843"><ele>157.85714285714286</ele><time>2026-04-18T10:50:46.001Z</time></trkpt><trkpt lat="44.7797573675586" lon="8.344830789185686"><ele>157.42857142857142</ele><time>2026-04-18T10:50:51.001Z</time></trkpt><trkpt lat="44.779709721253" lon="8.344909416978076"><ele>157.0</ele><time>2026-04-18T10:50:56.001Z</time></trkpt><trkpt lat="44.77965563353761" lon="8.344975084766137"><ele>156.99999999999997</ele><time>2026-04-18T10:51:01.001Z</time></trkpt><trkpt lat="44.77961544731161" lon="8.34504626756054"><ele>157.0</ele><time>2026-04-18T10:51:06.001Z</time></trkpt><trkpt lat="44.77956344849705" lon="8.345119856961825"><ele>157.0</ele><time>2026-04-18T10:51:12Z</time></trkpt><trkpt lat="44.77952102727152" lon="8.345199913271527"><ele>157.0</ele><time>2026-04-18T10:51:17Z</time></trkpt><trkpt lat="44.77947390592383" lon="8.345263402547044"><ele>157.0</ele><time>2026-04-18T10:51:22Z</time></trkpt><trkpt lat="44.77942642773557" lon="8.345328856043324"><ele>156.99999999999997</ele><time>2026-04-18T10:51:27Z</time></trkpt><trkpt lat="44.77937703648839" lon="8.345410672278879"><ele>157.0</ele><time>2026-04-18T10:51:32Z</time></trkpt><trkpt lat="44.77933536182623" lon="8.345479071881508"><ele>155.33333333333334</ele><time>2026-04-18T10:51:36Z</time></trkpt><trkpt lat="44.77928537797848" lon="8.345549013993326"><ele>153.66666666666669</ele><time>2026-04-18T10:51:41Z</time></trkpt><trkpt lat="44.77923007364872" lon="8.345624165079759"><ele>152.0</ele><time>2026-04-18T10:51:46Z</time></trkpt><trkpt lat="44.779184799802955" lon="8.34569743658501"><ele>150.33333333333334</ele><time>2026-04-18T10:51:51Z</time></trkpt><trkpt lat="44.779156924494735" lon="8.345797360194506"><ele>148.66666666666666</ele><time>2026-04-18T10:51:57Z</time></trkpt><trkpt lat="44.77923374745921" lon="8.345708098028728"><ele>147.0</ele><time>2026-04-18T10:52:12Z</time></trkpt><trkpt lat="44.7792836781336" lon="8.345625830381834"><ele>148.66666666666666</ele><time>2026-04-18T10:52:13Z</time></trkpt><trkpt lat="44.7793716518362" lon="8.345495411655758"><ele>150.33333333333334</ele><time>2026-04-18T10:52:15Z</time></trkpt><trkpt lat="44.779418040304144" lon="8.345418108913275"><ele>152.0</ele><time>2026-04-18T10:52:16Z</time></trkpt><trkpt lat="44.779471424323454" lon="8.345338665539039"><ele>153.66666666666669</ele><time>2026-04-18T10:52:17Z</time></trkpt><trkpt lat="44.77952853914573" lon="8.345267994043338"><ele>155.33333333333334</ele><time>2026-04-18T10:52:18Z</time></trkpt><trkpt lat="44.779585080771234" lon="8.345190545424567"><ele>157.0</ele><time>2026-04-18T10:52:19Z</time></trkpt><trkpt lat="44.77964504191072" lon="8.345106401851137"><ele>157.0</ele><time>2026-04-18T10:52:20Z</time></trkpt><trkpt lat="44.7796983738413" lon="8.344989551655392"><ele>157.0</ele><time>2026-04-18T10:52:21Z</time></trkpt><trkpt lat="44.77976171229143" lon="8.344882326675613"><ele>157.0</ele><time>2026-04-18T10:52:22Z</time></trkpt><trkpt lat="44.77981568564116" lon="8.344795530027149"><ele>157.0</ele><time>2026-04-18T10:52:23Z</time></trkpt><trkpt lat="44.77985811977636" lon="8.344724627663567"><ele>157.0</ele><time>2026-04-18T10:52:24Z</time></trkpt><trkpt lat="44.77994323445218" lon="8.344587941987823"><ele>152.0</ele><time>2026-04-18T10:52:26Z</time></trkpt><trkpt lat="44.77999416945016" lon="8.344489592072954"><ele>152.0</ele><time>2026-04-18T10:52:28Z</time></trkpt></trkseg></trk></gpx>